sensor_id;sensor_type;location;lat;lon;timestamp;temperature;humidity
41904;DHT22;27586;51.124;4.182;2023-12-20T00:01:37;6.70;99.90
41904;DHT22;27586;51.124;4.182;2023-12-20T00:04:03;6.70;99.90
41904;DHT22;27586;51.124;4.182;2023-12-20T00:06:30;6.70;99.90
41904;DHT22;27586;51.124;4.182;2023-12-20T00:08:55;6.60;99.90
41904;DHT22;27586;51.124;4.182;2023-12-20T00:11:21;6.50;99.90
41904;DHT22;27586;51.124;4.182;2023-12-20T00:13:47;6.50;99.90
41904;DHT22;27586;51.124;4.182;2023-12-20T00:16:12;6.50;99.90
41904;DHT22;27586;51.124;4.182;2023-12-20T00:18:38;6.50;99.90
41904;DHT22;27586;51.124;4.182;2023-12-20T00:21:04;6.40;99.90
41904;DHT22;27586;51.124;4.182;2023-12-20T00:23:29;6.40;99.90
41904;DHT22;27586;51.124;4.182;2023-12-20T00:25:55;6.40;99.90
41904;DHT22;27586;51.124;4.182;2023-12-20T00:28:21;6.50;99.90
41904;DHT22;27586;51.124;4.182;2023-12-20T00:30:47;6.40;99.90
41904;DHT22;27586;51.124;4.182;2023-12-20T00:33:13;6.40;99.90
41904;DHT22;27586;51.124;4.182;2023-12-20T00:35:38;6.30;99.90
41904;DHT22;27586;51.124;4.182;2023-12-20T00:38:04;6.30;99.90
41904;DHT22;27586;51.124;4.182;2023-12-20T00:40:30;6.30;99.90
41904;DHT22;27586;51.124;4.182;2023-12-20T00:42:56;6.20;99.90
41904;DHT22;27586;51.124;4.182;2023-12-20T00:45:22;6.20;99.90
41904;DHT22;27586;51.124;4.182;2023-12-20T00:47:47;6.30;99.90
41904;DHT22;27586;51.124;4.182;2023-12-20T00:50:13;6.20;99.90
41904;DHT22;27586;51.124;4.182;2023-12-20T00:52:39;6.20;99.90
41904;DHT22;27586;51.124;4.182;2023-12-20T00:55:04;6.20;99.90
41904;DHT22;27586;51.124;4.182;2023-12-20T00:57:30;6.10;99.90
41904;DHT22;27586;51.124;4.182;2023-12-20T00:59:56;6.10;99.90
41904;DHT22;27586;51.124;4.182;2023-12-20T01:02:22;6.10;99.90
41904;DHT22;27586;51.124;4.182;2023-12-20T01:04:48;6.10;99.90
41904;DHT22;27586;51.124;4.182;2023-12-20T01:07:13;6.00;99.90
41904;DHT22;27586;51.124;4.182;2023-12-20T01:09:39;6.00;99.90
41904;DHT22;27586;51.124;4.182;2023-12-20T01:12:05;6.00;99.90
41904;DHT22;27586;51.124;4.182;2023-12-20T01:14:30;6.00;99.90
41904;DHT22;27586;51.124;4.182;2023-12-20T01:16:56;6.00;99.90
41904;DHT22;27586;51.124;4.182;2023-12-20T01:19:22;6.00;99.90
41904;DHT22;27586;51.124;4.182;2023-12-20T01:21:49;5.90;99.90
41904;DHT22;27586;51.124;4.182;2023-12-20T01:24:14;6.00;99.90
41904;DHT22;27586;51.124;4.182;2023-12-20T01:26:40;6.00;99.90
41904;DHT22;27586;51.124;4.182;2023-12-20T01:29:06;6.00;99.90
41904;DHT22;27586;51.124;4.182;2023-12-20T01:31:31;6.10;99.90
41904;DHT22;27586;51.124;4.182;2023-12-20T01:33:57;6.00;99.90
41904;DHT22;27586;51.124;4.182;2023-12-20T01:36:23;6.00;99.90
41904;DHT22;27586;51.124;4.182;2023-12-20T01:38:48;6.00;99.90
41904;DHT22;27586;51.124;4.182;2023-12-20T01:41:14;6.10;99.90
41904;DHT22;27586;51.124;4.182;2023-12-20T01:43:40;6.20;99.90
41904;DHT22;27586;51.124;4.182;2023-12-20T01:46:06;6.10;99.90
41904;DHT22;27586;51.124;4.182;2023-12-20T01:48:32;6.10;99.90
41904;DHT22;27586;51.124;4.182;2023-12-20T01:50:59;6.10;99.90
41904;DHT22;27586;51.124;4.182;2023-12-20T01:53:25;6.00;99.90
41904;DHT22;27586;51.124;4.182;2023-12-20T01:55:55;6.00;99.90
41904;DHT22;27586;51.124;4.182;2023-12-20T01:58:22;6.00;99.90
41904;DHT22;27586;51.124;4.182;2023-12-20T02:00:48;5.90;99.90
41904;DHT22;27586;51.124;4.182;2023-12-20T02:03:15;6.00;99.90
41904;DHT22;27586;51.124;4.182;2023-12-20T02:05:42;6.20;99.90
41904;DHT22;27586;51.124;4.182;2023-12-20T02:08:07;6.20;99.90
41904;DHT22;27586;51.124;4.182;2023-12-20T02:10:34;6.30;99.90
41904;DHT22;27586;51.124;4.182;2023-12-20T02:12:59;6.30;99.90
41904;DHT22;27586;51.124;4.182;2023-12-20T02:15:25;6.40;99.90
41904;DHT22;27586;51.124;4.182;2023-12-20T02:17:51;6.30;99.90
41904;DHT22;27586;51.124;4.182;2023-12-20T02:20:17;6.30;99.90
41904;DHT22;27586;51.124;4.182;2023-12-20T02:22:42;6.30;99.90
41904;DHT22;27586;51.124;4.182;2023-12-20T02:25:08;6.30;99.90
41904;DHT22;27586;51.124;4.182;2023-12-20T02:27:34;6.30;99.90
41904;DHT22;27586;51.124;4.182;2023-12-20T02:30:00;6.40;99.90
41904;DHT22;27586;51.124;4.182;2023-12-20T02:32:26;6.50;99.90
41904;DHT22;27586;51.124;4.182;2023-12-20T02:34:54;6.50;99.90
41904;DHT22;27586;51.124;4.182;2023-12-20T02:37:20;6.50;99.90
41904;DHT22;27586;51.124;4.182;2023-12-20T02:39:45;6.50;99.90
41904;DHT22;27586;51.124;4.182;2023-12-20T02:42:11;6.60;99.90
41904;DHT22;27586;51.124;4.182;2023-12-20T02:44:37;6.60;99.90
41904;DHT22;27586;51.124;4.182;2023-12-20T02:47:03;6.70;99.90
41904;DHT22;27586;51.124;4.182;2023-12-20T02:49:28;6.60;99.90
41904;DHT22;27586;51.124;4.182;2023-12-20T02:51:54;6.60;99.90
41904;DHT22;27586;51.124;4.182;2023-12-20T02:54:20;6.70;99.90
41904;DHT22;27586;51.124;4.182;2023-12-20T02:56:45;6.80;99.90
41904;DHT22;27586;51.124;4.182;2023-12-20T02:59:11;6.80;99.90
41904;DHT22;27586;51.124;4.182;2023-12-20T03:01:43;6.90;99.90
41904;DHT22;27586;51.124;4.182;2023-12-20T03:04:09;7.00;99.90
41904;DHT22;27586;51.124;4.182;2023-12-20T03:06:35;6.80;99.90
41904;DHT22;27586;51.124;4.182;2023-12-20T03:09:01;6.80;99.90
41904;DHT22;27586;51.124;4.182;2023-12-20T03:11:27;6.80;99.90
41904;DHT22;27586;51.124;4.182;2023-12-20T03:13:53;6.80;99.90
41904;DHT22;27586;51.124;4.182;2023-12-20T03:16:19;6.80;99.90
41904;DHT22;27586;51.124;4.182;2023-12-20T03:18:45;6.80;99.90
41904;DHT22;27586;51.124;4.182;2023-12-20T03:21:10;6.70;99.90
41904;DHT22;27586;51.124;4.182;2023-12-20T03:23:36;6.70;99.90
41904;DHT22;27586;51.124;4.182;2023-12-20T03:26:02;6.70;99.90
41904;DHT22;27586;51.124;4.182;2023-12-20T03:28:29;6.70;99.90
41904;DHT22;27586;51.124;4.182;2023-12-20T03:30:55;6.70;99.90
41904;DHT22;27586;51.124;4.182;2023-12-20T03:33:21;6.80;99.90
41904;DHT22;27586;51.124;4.182;2023-12-20T03:35:46;6.80;99.90
41904;DHT22;27586;51.124;4.182;2023-12-20T03:38:12;6.90;99.90
41904;DHT22;27586;51.124;4.182;2023-12-20T03:40:38;6.80;99.90
41904;DHT22;27586;51.124;4.182;2023-12-20T03:43:03;6.80;99.90
41904;DHT22;27586;51.124;4.182;2023-12-20T03:45:29;6.80;99.90
41904;DHT22;27586;51.124;4.182;2023-12-20T03:47:55;6.80;99.90
41904;DHT22;27586;51.124;4.182;2023-12-20T03:50:25;6.90;99.90
41904;DHT22;27586;51.124;4.182;2023-12-20T03:52:50;6.80;99.90
41904;DHT22;27586;51.124;4.182;2023-12-20T03:55:16;6.80;99.90
41904;DHT22;27586;51.124;4.182;2023-12-20T03:57:42;6.70;99.90
41904;DHT22;27586;51.124;4.182;2023-12-20T04:00:08;6.70;99.90
41904;DHT22;27586;51.124;4.182;2023-12-20T04:02:41;6.70;99.90
41904;DHT22;27586;51.124;4.182;2023-12-20T04:05:07;6.70;99.90
41904;DHT22;27586;51.124;4.182;2023-12-20T04:07:33;6.80;99.90
41904;DHT22;27586;51.124;4.182;2023-12-20T04:09:59;6.80;99.90
41904;DHT22;27586;51.124;4.182;2023-12-20T04:12:25;6.80;99.90
41904;DHT22;27586;51.124;4.182;2023-12-20T04:14:51;6.90;99.90
41904;DHT22;27586;51.124;4.182;2023-12-20T04:17:17;6.80;99.90
41904;DHT22;27586;51.124;4.182;2023-12-20T04:19:43;6.80;99.90
41904;DHT22;27586;51.124;4.182;2023-12-20T04:22:09;6.90;99.90
41904;DHT22;27586;51.124;4.182;2023-12-20T04:24:34;6.90;99.90
41904;DHT22;27586;51.124;4.182;2023-12-20T04:27:01;7.00;99.90
41904;DHT22;27586;51.124;4.182;2023-12-20T04:29:27;6.90;99.90
41904;DHT22;27586;51.124;4.182;2023-12-20T04:31:52;6.80;99.90
41904;DHT22;27586;51.124;4.182;2023-12-20T04:34:18;6.90;99.90
41904;DHT22;27586;51.124;4.182;2023-12-20T04:36:44;6.90;99.90
41904;DHT22;27586;51.124;4.182;2023-12-20T04:39:11;6.90;99.90
41904;DHT22;27586;51.124;4.182;2023-12-20T04:41:36;6.80;99.90
41904;DHT22;27586;51.124;4.182;2023-12-20T04:44:02;6.90;99.90
41904;DHT22;27586;51.124;4.182;2023-12-20T04:46:28;6.80;99.90
41904;DHT22;27586;51.124;4.182;2023-12-20T04:48:53;6.80;99.90
41904;DHT22;27586;51.124;4.182;2023-12-20T04:51:19;6.80;99.90
41904;DHT22;27586;51.124;4.182;2023-12-20T04:53:45;6.90;99.90
41904;DHT22;27586;51.124;4.182;2023-12-20T04:56:11;6.80;99.90
41904;DHT22;27586;51.124;4.182;2023-12-20T04:58:37;6.70;99.90
41904;DHT22;27586;51.124;4.182;2023-12-20T05:01:03;6.60;99.90
41904;DHT22;27586;51.124;4.182;2023-12-20T05:03:30;6.60;99.90
41904;DHT22;27586;51.124;4.182;2023-12-20T05:05:56;6.60;99.90
41904;DHT22;27586;51.124;4.182;2023-12-20T05:08:22;6.70;99.90
41904;DHT22;27586;51.124;4.182;2023-12-20T05:10:47;6.70;99.90
41904;DHT22;27586;51.124;4.182;2023-12-20T05:13:13;6.60;99.90
41904;DHT22;27586;51.124;4.182;2023-12-20T05:15:39;6.60;99.90
41904;DHT22;27586;51.124;4.182;2023-12-20T05:18:04;6.60;99.90
41904;DHT22;27586;51.124;4.182;2023-12-20T05:20:30;6.60;99.90
41904;DHT22;27586;51.124;4.182;2023-12-20T05:22:56;6.50;99.90
41904;DHT22;27586;51.124;4.182;2023-12-20T05:25:21;6.50;99.90
41904;DHT22;27586;51.124;4.182;2023-12-20T05:27:48;6.50;99.90
41904;DHT22;27586;51.124;4.182;2023-12-20T05:30:13;6.50;99.90
41904;DHT22;27586;51.124;4.182;2023-12-20T05:32:39;6.40;99.90
41904;DHT22;27586;51.124;4.182;2023-12-20T05:35:05;6.40;99.90
41904;DHT22;27586;51.124;4.182;2023-12-20T05:37:31;6.40;99.90
41904;DHT22;27586;51.124;4.182;2023-12-20T05:39:57;6.50;99.90
41904;DHT22;27586;51.124;4.182;2023-12-20T05:42:22;6.40;99.90
41904;DHT22;27586;51.124;4.182;2023-12-20T05:44:48;6.60;99.90
41904;DHT22;27586;51.124;4.182;2023-12-20T05:47:14;6.50;99.90
41904;DHT22;27586;51.124;4.182;2023-12-20T05:49:39;6.50;99.90
41904;DHT22;27586;51.124;4.182;2023-12-20T05:52:05;6.50;99.90
41904;DHT22;27586;51.124;4.182;2023-12-20T05:54:31;6.50;99.90
41904;DHT22;27586;51.124;4.182;2023-12-20T05:56:57;6.50;99.90
41904;DHT22;27586;51.124;4.182;2023-12-20T05:59:22;6.60;99.90
41904;DHT22;27586;51.124;4.182;2023-12-20T06:01:48;6.70;99.90
41904;DHT22;27586;51.124;4.182;2023-12-20T06:04:13;6.70;99.90
41904;DHT22;27586;51.124;4.182;2023-12-20T06:06:42;6.80;99.90
41904;DHT22;27586;51.124;4.182;2023-12-20T06:09:08;6.80;99.90
41904;DHT22;27586;51.124;4.182;2023-12-20T06:11:34;6.80;99.90
41904;DHT22;27586;51.124;4.182;2023-12-20T06:13:59;6.80;99.90
41904;DHT22;27586;51.124;4.182;2023-12-20T06:16:25;6.70;99.90
41904;DHT22;27586;51.124;4.182;2023-12-20T06:18:50;6.70;99.90
41904;DHT22;27586;51.124;4.182;2023-12-20T06:21:16;6.70;99.90
41904;DHT22;27586;51.124;4.182;2023-12-20T06:23:42;6.60;99.90
41904;DHT22;27586;51.124;4.182;2023-12-20T06:26:08;6.50;99.90
41904;DHT22;27586;51.124;4.182;2023-12-20T06:28:33;6.40;99.90
41904;DHT22;27586;51.124;4.182;2023-12-20T06:30:59;6.40;99.90
41904;DHT22;27586;51.124;4.182;2023-12-20T06:33:26;6.30;99.90
41904;DHT22;27586;51.124;4.182;2023-12-20T06:35:51;6.30;99.90
41904;DHT22;27586;51.124;4.182;2023-12-20T06:38:18;6.40;99.90
41904;DHT22;27586;51.124;4.182;2023-12-20T06:40:44;6.30;99.90
41904;DHT22;27586;51.124;4.182;2023-12-20T06:43:11;6.30;99.90
41904;DHT22;27586;51.124;4.182;2023-12-20T06:45:37;6.40;99.90
41904;DHT22;27586;51.124;4.182;2023-12-20T06:48:03;6.40;99.90
41904;DHT22;27586;51.124;4.182;2023-12-20T06:50:29;6.40;99.90
41904;DHT22;27586;51.124;4.182;2023-12-20T06:52:54;6.40;99.90
41904;DHT22;27586;51.124;4.182;2023-12-20T06:55:20;6.30;99.90
41904;DHT22;27586;51.124;4.182;2023-12-20T06:57:45;6.30;99.90
41904;DHT22;27586;51.124;4.182;2023-12-20T07:00:11;6.40;99.90
41904;DHT22;27586;51.124;4.182;2023-12-20T07:02:37;6.30;99.90
41904;DHT22;27586;51.124;4.182;2023-12-20T07:05:03;6.40;99.90
41904;DHT22;27586;51.124;4.182;2023-12-20T07:07:29;6.30;99.90
41904;DHT22;27586;51.124;4.182;2023-12-20T07:09:55;6.30;99.90
41904;DHT22;27586;51.124;4.182;2023-12-20T07:12:21;6.40;99.90
41904;DHT22;27586;51.124;4.182;2023-12-20T07:14:47;6.30;99.90
41904;DHT22;27586;51.124;4.182;2023-12-20T07:17:13;6.10;99.90
41904;DHT22;27586;51.124;4.182;2023-12-20T07:19:40;6.10;99.90
41904;DHT22;27586;51.124;4.182;2023-12-20T07:22:06;6.10;99.90
41904;DHT22;27586;51.124;4.182;2023-12-20T07:24:32;6.10;99.90
41904;DHT22;27586;51.124;4.182;2023-12-20T07:27:00;6.00;99.90
41904;DHT22;27586;51.124;4.182;2023-12-20T07:29:26;6.00;99.90
41904;DHT22;27586;51.124;4.182;2023-12-20T07:31:53;5.90;99.90
41904;DHT22;27586;51.124;4.182;2023-12-20T07:34:20;5.90;99.90
41904;DHT22;27586;51.124;4.182;2023-12-20T07:36:45;5.90;99.90
41904;DHT22;27586;51.124;4.182;2023-12-20T07:39:11;5.80;99.90
41904;DHT22;27586;51.124;4.182;2023-12-20T07:41:37;5.80;99.90
41904;DHT22;27586;51.124;4.182;2023-12-20T07:44:04;5.70;99.90
41904;DHT22;27586;51.124;4.182;2023-12-20T07:46:30;5.80;99.90
41904;DHT22;27586;51.124;4.182;2023-12-20T07:48:56;5.80;99.90
41904;DHT22;27586;51.124;4.182;2023-12-20T07:51:21;5.90;99.90
41904;DHT22;27586;51.124;4.182;2023-12-20T07:53:47;5.80;99.90
41904;DHT22;27586;51.124;4.182;2023-12-20T07:56:16;5.80;99.90
41904;DHT22;27586;51.124;4.182;2023-12-20T07:58:43;5.80;99.90
41904;DHT22;27586;51.124;4.182;2023-12-20T08:01:09;5.90;99.90
41904;DHT22;27586;51.124;4.182;2023-12-20T08:03:34;5.80;99.90
41904;DHT22;27586;51.124;4.182;2023-12-20T08:06:00;6.00;99.90
41904;DHT22;27586;51.124;4.182;2023-12-20T08:08:26;6.00;99.90
41904;DHT22;27586;51.124;4.182;2023-12-20T08:10:51;6.10;99.90
41904;DHT22;27586;51.124;4.182;2023-12-20T08:13:17;6.20;99.90
41904;DHT22;27586;51.124;4.182;2023-12-20T08:15:42;6.10;99.90
41904;DHT22;27586;51.124;4.182;2023-12-20T08:18:08;6.30;99.90
41904;DHT22;27586;51.124;4.182;2023-12-20T08:20:34;6.20;99.90
41904;DHT22;27586;51.124;4.182;2023-12-20T08:22:59;6.20;99.90
41904;DHT22;27586;51.124;4.182;2023-12-20T08:25:26;6.20;99.90
41904;DHT22;27586;51.124;4.182;2023-12-20T08:27:53;6.20;99.90
41904;DHT22;27586;51.124;4.182;2023-12-20T08:30:18;6.10;99.90
41904;DHT22;27586;51.124;4.182;2023-12-20T08:32:48;6.00;99.90
41904;DHT22;27586;51.124;4.182;2023-12-20T08:35:13;6.00;99.90
41904;DHT22;27586;51.124;4.182;2023-12-20T08:37:39;6.00;99.90
41904;DHT22;27586;51.124;4.182;2023-12-20T08:40:05;6.00;99.90
41904;DHT22;27586;51.124;4.182;2023-12-20T08:42:31;6.00;99.90
41904;DHT22;27586;51.124;4.182;2023-12-20T08:44:59;6.00;99.90
41904;DHT22;27586;51.124;4.182;2023-12-20T08:47:25;6.20;99.90
41904;DHT22;27586;51.124;4.182;2023-12-20T08:49:51;6.20;99.90
41904;DHT22;27586;51.124;4.182;2023-12-20T08:52:22;6.20;99.90
41904;DHT22;27586;51.124;4.182;2023-12-20T08:54:47;6.30;99.90
41904;DHT22;27586;51.124;4.182;2023-12-20T08:57:14;6.40;99.90
41904;DHT22;27586;51.124;4.182;2023-12-20T08:59:39;6.40;99.90
41904;DHT22;27586;51.124;4.182;2023-12-20T09:02:05;6.40;99.90
41904;DHT22;27586;51.124;4.182;2023-12-20T09:04:31;6.40;99.90
41904;DHT22;27586;51.124;4.182;2023-12-20T09:07:00;6.50;99.90
41904;DHT22;27586;51.124;4.182;2023-12-20T09:09:26;6.60;99.90
41904;DHT22;27586;51.124;4.182;2023-12-20T09:11:51;6.60;99.90
41904;DHT22;27586;51.124;4.182;2023-12-20T09:14:17;6.70;99.90
41904;DHT22;27586;51.124;4.182;2023-12-20T09:16:43;6.70;99.90
41904;DHT22;27586;51.124;4.182;2023-12-20T09:19:09;6.70;99.90
41904;DHT22;27586;51.124;4.182;2023-12-20T09:21:34;6.70;99.90
41904;DHT22;27586;51.124;4.182;2023-12-20T09:24:00;6.80;99.90
41904;DHT22;27586;51.124;4.182;2023-12-20T09:26:26;6.90;99.90
41904;DHT22;27586;51.124;4.182;2023-12-20T09:28:51;7.10;99.90
41904;DHT22;27586;51.124;4.182;2023-12-20T09:31:17;7.20;99.90
41904;DHT22;27586;51.124;4.182;2023-12-20T09:33:42;7.20;99.90
41904;DHT22;27586;51.124;4.182;2023-12-20T09:36:08;7.30;99.90
41904;DHT22;27586;51.124;4.182;2023-12-20T09:38:34;7.30;99.90
41904;DHT22;27586;51.124;4.182;2023-12-20T09:41:00;7.30;99.90
41904;DHT22;27586;51.124;4.182;2023-12-20T09:43:27;7.40;99.90
41904;DHT22;27586;51.124;4.182;2023-12-20T09:45:58;7.50;99.90
41904;DHT22;27586;51.124;4.182;2023-12-20T09:48:26;7.60;99.90
41904;DHT22;27586;51.124;4.182;2023-12-20T09:50:53;7.70;99.90
41904;DHT22;27586;51.124;4.182;2023-12-20T09:53:19;7.70;99.90
41904;DHT22;27586;51.124;4.182;2023-12-20T09:55:46;7.80;99.90
41904;DHT22;27586;51.124;4.182;2023-12-20T09:58:12;7.80;99.90
41904;DHT22;27586;51.124;4.182;2023-12-20T10:00:38;8.00;99.90
41904;DHT22;27586;51.124;4.182;2023-12-20T10:03:04;8.00;99.90
41904;DHT22;27586;51.124;4.182;2023-12-20T10:05:33;8.00;99.90
41904;DHT22;27586;51.124;4.182;2023-12-20T10:07:59;8.20;99.90
41904;DHT22;27586;51.124;4.182;2023-12-20T10:10:26;8.00;99.90
41904;DHT22;27586;51.124;4.182;2023-12-20T10:13:11;7.90;99.90
41904;DHT22;27586;51.124;4.182;2023-12-20T10:15:37;8.00;99.90
41904;DHT22;27586;51.124;4.182;2023-12-20T10:18:04;7.80;99.90
41904;DHT22;27586;51.124;4.182;2023-12-20T10:20:31;7.80;99.90
41904;DHT22;27586;51.124;4.182;2023-12-20T10:23:00;7.90;99.90
41904;DHT22;27586;51.124;4.182;2023-12-20T10:25:26;8.00;99.90
41904;DHT22;27586;51.124;4.182;2023-12-20T10:30:37;8.00;99.90
41904;DHT22;27586;51.124;4.182;2023-12-20T10:33:03;8.10;99.90
41904;DHT22;27586;51.124;4.182;2023-12-20T10:35:28;8.00;99.90
41904;DHT22;27586;51.124;4.182;2023-12-20T10:37:56;8.10;99.90
41904;DHT22;27586;51.124;4.182;2023-12-20T10:40:22;8.10;99.90
41904;DHT22;27586;51.124;4.182;2023-12-20T10:42:48;8.10;99.90
41904;DHT22;27586;51.124;4.182;2023-12-20T10:45:15;8.10;99.90
41904;DHT22;27586;51.124;4.182;2023-12-20T10:47:44;8.10;99.90
41904;DHT22;27586;51.124;4.182;2023-12-20T10:50:11;8.10;99.90
41904;DHT22;27586;51.124;4.182;2023-12-20T10:52:38;8.00;99.90
41904;DHT22;27586;51.124;4.182;2023-12-20T10:55:05;8.00;99.90
41904;DHT22;27586;51.124;4.182;2023-12-20T10:57:30;8.10;99.90
41904;DHT22;27586;51.124;4.182;2023-12-20T11:00:00;8.10;99.90
41904;DHT22;27586;51.124;4.182;2023-12-20T11:02:33;8.00;99.90
41904;DHT22;27586;51.124;4.182;2023-12-20T11:05:23;8.10;99.90
41904;DHT22;27586;51.124;4.182;2023-12-20T11:08:00;8.10;99.90
41904;DHT22;27586;51.124;4.182;2023-12-20T11:10:49;8.10;99.90
41904;DHT22;27586;51.124;4.182;2023-12-20T11:13:22;8.20;99.90
41904;DHT22;27586;51.124;4.182;2023-12-20T11:15:49;8.30;99.90
41904;DHT22;27586;51.124;4.182;2023-12-20T11:18:15;8.30;99.90
41904;DHT22;27586;51.124;4.182;2023-12-20T11:20:41;8.40;99.90
41904;DHT22;27586;51.124;4.182;2023-12-20T11:23:09;8.30;99.90
41904;DHT22;27586;51.124;4.182;2023-12-20T11:28:14;8.40;99.90
41904;DHT22;27586;51.124;4.182;2023-12-20T11:30:46;8.30;99.90
41904;DHT22;27586;51.124;4.182;2023-12-20T11:33:16;8.30;99.90
41904;DHT22;27586;51.124;4.182;2023-12-20T11:35:42;8.40;99.90
41904;DHT22;27586;51.124;4.182;2023-12-20T11:38:09;8.30;99.90
41904;DHT22;27586;51.124;4.182;2023-12-20T11:40:35;8.20;99.90
41904;DHT22;27586;51.124;4.182;2023-12-20T11:43:02;8.20;99.90
41904;DHT22;27586;51.124;4.182;2023-12-20T11:45:28;8.20;99.90
41904;DHT22;27586;51.124;4.182;2023-12-20T11:47:53;8.20;99.90
41904;DHT22;27586;51.124;4.182;2023-12-20T11:50:21;8.40;99.90
41904;DHT22;27586;51.124;4.182;2023-12-20T11:52:47;8.50;99.90
41904;DHT22;27586;51.124;4.182;2023-12-20T11:55:13;8.50;99.90
41904;DHT22;27586;51.124;4.182;2023-12-20T11:57:39;8.70;99.90
41904;DHT22;27586;51.124;4.182;2023-12-20T12:00:05;8.70;99.90
41904;DHT22;27586;51.124;4.182;2023-12-20T12:02:31;8.70;99.90
41904;DHT22;27586;51.124;4.182;2023-12-20T12:04:57;8.60;99.90
41904;DHT22;27586;51.124;4.182;2023-12-20T12:07:25;8.70;99.90
41904;DHT22;27586;51.124;4.182;2023-12-20T12:09:50;8.70;99.90
41904;DHT22;27586;51.124;4.182;2023-12-20T12:12:17;8.70;99.90
41904;DHT22;27586;51.124;4.182;2023-12-20T12:14:45;8.70;99.90
41904;DHT22;27586;51.124;4.182;2023-12-20T12:17:11;8.70;99.90
41904;DHT22;27586;51.124;4.182;2023-12-20T12:19:38;8.80;99.90
41904;DHT22;27586;51.124;4.182;2023-12-20T12:22:05;8.80;99.90
41904;DHT22;27586;51.124;4.182;2023-12-20T12:24:36;8.80;99.90
41904;DHT22;27586;51.124;4.182;2023-12-20T12:27:03;8.70;99.90
41904;DHT22;27586;51.124;4.182;2023-12-20T12:29:29;8.80;99.90
41904;DHT22;27586;51.124;4.182;2023-12-20T12:31:55;8.90;99.90
41904;DHT22;27586;51.124;4.182;2023-12-20T12:34:20;8.90;99.90
41904;DHT22;27586;51.124;4.182;2023-12-20T12:36:46;9.10;99.90
41904;DHT22;27586;51.124;4.182;2023-12-20T12:39:14;9.00;99.90
41904;DHT22;27586;51.124;4.182;2023-12-20T12:41:42;9.00;99.90
41904;DHT22;27586;51.124;4.182;2023-12-20T12:44:08;9.00;99.90
41904;DHT22;27586;51.124;4.182;2023-12-20T12:46:34;8.70;99.90
41904;DHT22;27586;51.124;4.182;2023-12-20T12:49:00;8.70;99.90
41904;DHT22;27586;51.124;4.182;2023-12-20T12:51:25;8.80;99.90
41904;DHT22;27586;51.124;4.182;2023-12-20T12:53:51;9.00;99.90
41904;DHT22;27586;51.124;4.182;2023-12-20T12:56:17;9.00;99.90
41904;DHT22;27586;51.124;4.182;2023-12-20T12:58:43;9.00;99.90
41904;DHT22;27586;51.124;4.182;2023-12-20T13:01:09;8.80;99.90
41904;DHT22;27586;51.124;4.182;2023-12-20T13:03:35;8.90;99.90
41904;DHT22;27586;51.124;4.182;2023-12-20T13:06:01;9.00;99.90
41904;DHT22;27586;51.124;4.182;2023-12-20T13:08:29;8.80;99.90
41904;DHT22;27586;51.124;4.182;2023-12-20T13:10:55;8.90;99.90
41904;DHT22;27586;51.124;4.182;2023-12-20T13:13:22;9.00;99.90
41904;DHT22;27586;51.124;4.182;2023-12-20T13:15:48;9.00;99.90
41904;DHT22;27586;51.124;4.182;2023-12-20T13:18:18;9.10;99.90
41904;DHT22;27586;51.124;4.182;2023-12-20T13:20:44;9.10;99.90
41904;DHT22;27586;51.124;4.182;2023-12-20T13:23:10;9.00;99.90
41904;DHT22;27586;51.124;4.182;2023-12-20T13:25:35;9.10;99.90
41904;DHT22;27586;51.124;4.182;2023-12-20T13:28:01;9.10;99.90
41904;DHT22;27586;51.124;4.182;2023-12-20T13:30:28;9.20;99.90
41904;DHT22;27586;51.124;4.182;2023-12-20T13:32:54;9.20;99.90
41904;DHT22;27586;51.124;4.182;2023-12-20T13:35:19;9.20;99.90
41904;DHT22;27586;51.124;4.182;2023-12-20T13:37:46;9.20;99.90
41904;DHT22;27586;51.124;4.182;2023-12-20T13:40:11;9.20;99.90
41904;DHT22;27586;51.124;4.182;2023-12-20T13:42:41;9.20;99.90
41904;DHT22;27586;51.124;4.182;2023-12-20T13:45:07;9.20;99.90
41904;DHT22;27586;51.124;4.182;2023-12-20T13:47:33;9.20;99.90
41904;DHT22;27586;51.124;4.182;2023-12-20T13:49:59;9.00;99.90
41904;DHT22;27586;51.124;4.182;2023-12-20T13:52:24;9.20;99.90
41904;DHT22;27586;51.124;4.182;2023-12-20T13:54:50;9.30;99.90
41904;DHT22;27586;51.124;4.182;2023-12-20T13:57:16;9.20;99.90
41904;DHT22;27586;51.124;4.182;2023-12-20T13:59:41;9.20;99.90
41904;DHT22;27586;51.124;4.182;2023-12-20T14:02:07;9.30;99.90
41904;DHT22;27586;51.124;4.182;2023-12-20T14:04:33;9.20;99.90
41904;DHT22;27586;51.124;4.182;2023-12-20T14:06:58;9.20;99.90
41904;DHT22;27586;51.124;4.182;2023-12-20T14:09:24;9.20;99.90
41904;DHT22;27586;51.124;4.182;2023-12-20T14:11:50;9.10;99.90
41904;DHT22;27586;51.124;4.182;2023-12-20T14:14:16;9.20;99.90
41904;DHT22;27586;51.124;4.182;2023-12-20T14:16:41;9.30;99.90
41904;DHT22;27586;51.124;4.182;2023-12-20T14:19:11;9.10;99.90
41904;DHT22;27586;51.124;4.182;2023-12-20T14:21:36;9.20;99.90
41904;DHT22;27586;51.124;4.182;2023-12-20T14:24:02;9.40;99.90
41904;DHT22;27586;51.124;4.182;2023-12-20T14:26:30;9.40;99.90
41904;DHT22;27586;51.124;4.182;2023-12-20T14:28:57;9.40;99.90
41904;DHT22;27586;51.124;4.182;2023-12-20T14:31:23;9.30;99.90
41904;DHT22;27586;51.124;4.182;2023-12-20T14:33:50;9.40;99.90
41904;DHT22;27586;51.124;4.182;2023-12-20T14:36:17;9.20;99.90
41904;DHT22;27586;51.124;4.182;2023-12-20T14:38:44;9.30;99.90
41904;DHT22;27586;51.124;4.182;2023-12-20T14:41:09;9.40;99.90
41904;DHT22;27586;51.124;4.182;2023-12-20T14:43:35;9.20;99.90
41904;DHT22;27586;51.124;4.182;2023-12-20T14:46:01;9.20;99.90
41904;DHT22;27586;51.124;4.182;2023-12-20T14:48:27;9.40;99.90
41904;DHT22;27586;51.124;4.182;2023-12-20T14:50:53;9.30;99.90
41904;DHT22;27586;51.124;4.182;2023-12-20T14:53:19;9.30;99.90
41904;DHT22;27586;51.124;4.182;2023-12-20T14:55:45;9.40;99.90
41904;DHT22;27586;51.124;4.182;2023-12-20T14:58:11;9.40;99.90
41904;DHT22;27586;51.124;4.182;2023-12-20T15:00:37;9.40;99.90
41904;DHT22;27586;51.124;4.182;2023-12-20T15:03:03;9.40;99.90
41904;DHT22;27586;51.124;4.182;2023-12-20T15:05:30;9.50;99.90
41904;DHT22;27586;51.124;4.182;2023-12-20T15:07:56;9.40;99.90
41904;DHT22;27586;51.124;4.182;2023-12-20T15:10:22;9.40;99.90
41904;DHT22;27586;51.124;4.182;2023-12-20T15:12:48;9.40;99.90
41904;DHT22;27586;51.124;4.182;2023-12-20T15:15:13;9.50;99.90
41904;DHT22;27586;51.124;4.182;2023-12-20T15:17:39;9.50;99.90
41904;DHT22;27586;51.124;4.182;2023-12-20T15:20:05;9.50;99.90
41904;DHT22;27586;51.124;4.182;2023-12-20T15:22:31;9.40;99.90
41904;DHT22;27586;51.124;4.182;2023-12-20T15:24:59;9.50;99.90
41904;DHT22;27586;51.124;4.182;2023-12-20T15:27:26;9.50;99.90
41904;DHT22;27586;51.124;4.182;2023-12-20T15:29:52;9.50;99.90
41904;DHT22;27586;51.124;4.182;2023-12-20T15:32:17;9.40;99.90
41904;DHT22;27586;51.124;4.182;2023-12-20T15:34:46;9.40;99.90
41904;DHT22;27586;51.124;4.182;2023-12-20T15:37:12;9.40;99.90
41904;DHT22;27586;51.124;4.182;2023-12-20T15:39:38;9.60;99.90
41904;DHT22;27586;51.124;4.182;2023-12-20T15:42:03;9.60;99.90
41904;DHT22;27586;51.124;4.182;2023-12-20T15:44:29;9.50;99.90